Time;durP1;ratioP1;P1;durP2;ratioP2;P2;SDS_P1;SDS_P2;PMS_P1;PMS_P2;Temp;Humidity;BMP_temperature;BMP_pressure;BME280_temperature;BME280_humidity;BME280_pressure;Samples;Min_cycle;Max_cycle;Signal;HPM_P1;HPM_P2
2021/07/16 00:01:48;;;;;;;1.60;1.50;;;24.60;58.20;;;;;;6126620;23;20387;-88
2021/07/16 00:04:29;;;;;;;;;;;;;;;;;;;;;
2021/07/16 00:10:18;;;;;;;;;;;;;;;;;;;;;
2021/07/16 00:12:48;;;;;;;1.33;1.23;;;24.60;58.20;;;;;;6134514;23;20377;-88
2021/07/16 00:15:52;;;;;;;;;;;;;;;;;;;;;
2021/07/16 00:18:21;;;;;;;1.67;1.30;;;24.60;58.20;;;;;;6134710;23;20370;-88
2021/07/16 00:21:02;;;;;;;;;;;;;;;;;;;;;
2021/07/16 00:23:44;;;;;;;;;;;;;;;;;;;;;
2021/07/16 00:26:50;;;;;;;;;;;;;;;;;;;;;
2021/07/16 00:29:15;;;;;;;1.53;1.43;;;24.60;58.20;;;;;;6135808;23;20381;-88
2021/07/16 00:31:56;;;;;;;;;;;;;;;;;;;;;
2021/07/16 00:37:36;;;;;;;2.10;1.50;;;24.60;58.20;;;;;;6350323;22;20422;-89
2021/07/16 00:40:16;;;;;;;2.13;1.63;;;24.60;58.20;;;;;;6343722;22;20392;-89
2021/07/16 00:42:47;;;;;;;1.97;1.70;;;24.60;58.20;;;;;;6323235;22;20378;-89
2021/07/16 00:45:24;;;;;;;1.70;1.40;;;24.60;58.20;;;;;;6324082;22;20404;-89
2021/07/16 00:48:22;;;;;;;;;;;;;;;;;;;;;
2021/07/16 00:51:44;;;;;;;;;;;;;;;;;;;;;
2021/07/16 01:02:53;;;;;;;2.20;2.00;;;24.60;58.20;;;;;;6137182;22;20459;-89
2021/07/16 01:09:45;;;;;;;1.73;1.50;;;24.60;58.20;;;;;;5991268;24;20782;-89
2021/07/16 01:19:47;;;;;;;;;;;;;;;;;;;;;
2021/07/16 01:36:34;;;;;;;;;;;;;;;;;;;;;
2021/07/16 01:42:56;;;;;;;;;;;;;;;;;;;;;
2021/07/16 01:46:18;;;;;;;;;;;;;;;;;;;;;
2021/07/16 01:49:22;;;;;;;2.30;1.60;;;24.60;58.30;;;;;;6082168;23;20383;-89
2021/07/16 01:52:12;;;;;;;2.67;1.60;;;24.60;58.30;;;;;;6077815;23;20753;-89
2021/07/16 01:55:10;;;;;;;1.90;1.60;;;24.60;58.30;;;;;;6058395;23;20419;-89
2021/07/16 01:58:22;;;;;;;;;;;;;;;;;;;;;
2021/07/16 02:01:24;;;;;;;;;;;;;;;;;;;;;
2021/07/16 02:07:28;;;;;;;;;;;;;;;;;;;;;
2021/07/16 02:13:06;;;;;;;2.13;1.60;;;24.60;58.20;;;;;;6147957;23;20379;-89
2021/07/16 02:15:53;;;;;;;1.80;1.70;;;24.60;58.20;;;;;;6142983;23;20383;-89
2021/07/16 02:18:35;;;;;;;;;;;;;;;;;;;;;
2021/07/16 02:21:10;;;;;;;1.80;1.57;;;24.60;58.20;;;;;;6169311;23;20356;-89
2021/07/16 02:28:00;;;;;;;;;;;;;;;;;;;;;
2021/07/16 02:31:09;;;;;;;;;;;;;;;;;;;;;
2021/07/16 02:37:32;;;;;;;;;;;;;;;;;;;;;
2021/07/16 02:40:21;;;;;;;2.47;1.87;;;24.60;58.20;;;;;;6169006;23;20894;-89
2021/07/16 02:50:21;;;;;;;1.67;1.40;;;24.60;58.10;;;;;;6168937;23;20469;-89
2021/07/16 02:56:53;;;;;;;1.70;1.60;;;24.60;58.20;;;;;;6167966;23;20376;-89
2021/07/16 02:59:55;;;;;;;;;;;;;;;;;;;;;
2021/07/16 03:03:29;;;;;;;;;;;;;;;;;;;;;
2021/07/16 03:10:02;;;;;;;;;;;;;;;;;;;;;
2021/07/16 03:16:20;;;;;;;1.80;1.60;;;24.50;58.10;;;;;;6000746;23;20408;-89
2021/07/16 03:25:49;;;;;;;1.67;1.57;;;24.60;58.10;;;;;;6021604;23;20379;-89
2021/07/16 03:32:14;;;;;;;;;;;;;;;;;;;;;
2021/07/16 03:35:26;;;;;;;;;;;;;;;;;;;;;
2021/07/16 03:38:25;;;;;;;;;;;;;;;;;;;;;
2021/07/16 03:41:01;;;;;;;1.63;1.50;;;24.60;58.10;;;;;;6021939;23;20396;-89
2021/07/16 03:44:17;;;;;;;3.17;1.77;;;24.50;58.10;;;;;;6137694;23;20403;-89
2021/07/16 03:46:48;;;;;;;2.33;1.90;;;24.60;58.10;;;;;;6167970;23;20391;-89
2021/07/16 03:49:28;;;;;;;2.10;1.90;;;24.50;58.10;;;;;;6142661;23;20387;-89
2021/07/16 03:52:10;;;;;;;1.97;1.60;;;24.60;58.10;;;;;;6142265;23;20458;-89
2021/07/16 03:55:09;;;;;;;1.60;1.50;;;24.50;58.00;;;;;;6167309;23;20388;-89
2021/07/16 03:58:03;;;;;;;;;;;;;;;;;;;;;
2021/07/16 04:00:32;;;;;;;1.80;1.70;;;24.60;58.10;;;;;;6168407;23;20407;-89
2021/07/16 04:03:17;;;;;;;;;;;;;;;;;;;;;
2021/07/16 04:06:03;;;;;;;2.37;2.03;;;24.60;58.10;;;;;;6167477;23;20365;-89
2021/07/16 04:12:02;;;;;;;1.70;1.60;;;24.60;58.00;;;;;;5991657;24;20389;-89
2021/07/16 04:14:58;;;;;;;;;;;;;;;;;;;;;
2021/07/16 04:17:39;;;;;;;;;;;;;;;;;;;;;
2021/07/16 04:20:53;;;;;;;;;;;;;;;;;;;;;
2021/07/16 04:26:34;;;;;;;;;;;;;;;;;;;;;
2021/07/16 04:29:11;;;;;;;;;;;;;;;;;;;;;
2021/07/16 04:34:43;;;;;;;2.10;1.90;;;24.60;58.00;;;;;;5993369;24;20389;-88
2021/07/16 04:38:26;;;;;;;;;;;;;;;;;;;;;
2021/07/16 04:45:01;;;;;;;;;;;;;;;;;;;;;
2021/07/16 04:58:12;;;;;;;;;;;;;;;;;;;;;
2021/07/16 05:04:53;;;;;;;2.50;1.90;;;24.50;58.00;;;;;;5923559;24;20499;-89
2021/07/16 05:18:15;;;;;;;;;;;;;;;;;;;;;
2021/07/16 05:21:22;;;;;;;2.60;1.50;;;24.60;58.10;;;;;;5909599;23;20423;-89
2021/07/16 05:24:39;;;;;;;1.90;1.70;;;24.60;58.10;;;;;;5962268;23;20392;-88
2021/07/16 05:27:15;;;;;;;2.30;2.10;;;24.60;58.10;;;;;;6044896;23;20438;-88
2021/07/16 05:30:19;;;;;;;2.03;1.80;;;24.50;58.00;;;;;;6022264;23;20431;-88
2021/07/16 05:33:04;;;;;;;;;;;;;;;;;;;;;
2021/07/16 05:35:57;;;;;;;;;;;;;;;;;;;;;
2021/07/16 05:41:50;;;;;;;2.10;1.90;;;24.60;58.00;;;;;;6048701;23;20383;-88
2021/07/16 05:44:45;;;;;;;2.40;2.20;;;24.60;58.00;;;;;;6049073;23;20394;-88
2021/07/16 05:47:55;;;;;;;2.30;2.10;;;24.60;58.00;;;;;;6026126;23;20391;-88
2021/07/16 05:58:05;;;;;;;2.13;1.90;;;24.60;58.10;;;;;;5936868;24;20388;-88
2021/07/16 06:04:26;;;;;;;;;;;;;;;;;;;;;
2021/07/16 06:29:13;;;;;;;2.17;1.97;;;24.50;58.80;;;;;;5072003;28;20177;-83
2021/07/16 06:31:48;;;;;;;3.00;1.93;;;24.40;58.50;;;;;;5069905;28;20458;-83
2021/07/16 06:34:38;;;;;;;4.47;2.40;;;24.50;58.40;;;;;;5051733;28;20437;-83
2021/07/16 06:38:04;;;;;;;3.23;2.13;;;24.50;58.30;;;;;;5060238;28;20444;-83
2021/07/16 06:40:46;;;;;;;2.80;2.20;;;24.60;58.30;;;;;;5063349;28;20431;-83
2021/07/16 06:43:17;;;;;;;2.83;2.40;;;24.60;58.20;;;;;;5052361;28;20485;-83
2021/07/16 06:45:44;;;;;;;3.30;2.83;;;24.60;58.10;;;;;;5064975;28;20414;-83
2021/07/16 06:48:30;;;;;;;;;;;;;;;;;;;;;
2021/07/16 06:51:33;;;;;;;;;;;;;;;;;;;;;
2021/07/16 06:54:02;;;;;;;2.77;2.50;;;24.70;58.10;;;;;;5002670;28;20451;-84
2021/07/16 07:03:25;;;;;;;3.93;2.90;;;24.80;58.00;;;;;;4989327;28;20397;-84
2021/07/16 07:06:01;;;;;;;4.53;3.00;;;24.80;58.10;;;;;;4972518;28;20409;-84
2021/07/16 07:08:31;;;;;;;5.10;3.20;;;24.90;58.10;;;;;;4971199;28;20432;-86
2021/07/16 07:11:10;;;;;;;4.10;2.90;;;24.90;58.10;;;;;;4967519;29;20433;-87
2021/07/16 07:14:03;;;;;;;3.20;2.90;;;24.90;58.10;;;;;;4951660;29;20433;-87
2021/07/16 07:16:34;;;;;;;6.53;2.90;;;24.90;58.00;;;;;;4967552;29;20414;-87
2021/07/16 07:19:26;;;;;;;4.70;3.20;;;24.90;58.00;;;;;;4952051;29;20433;-87
2021/07/16 07:22:00;;;;;;;4.03;3.17;;;25.00;58.10;;;;;;4952272;29;20457;-87
2021/07/16 07:24:26;;;;;;;5.07;3.17;;;25.00;58.00;;;;;;4951965;29;20553;-87
2021/07/16 07:26:58;;;;;;;3.00;2.60;;;25.00;58.00;;;;;;4951433;29;20789;-87
2021/07/16 07:29:34;;;;;;;4.30;3.10;;;25.00;58.00;;;;;;4953964;28;20410;-85
2021/07/16 07:32:32;;;;;;;3.90;3.37;;;25.00;57.90;;;;;;5066016;28;20390;-84
2021/07/16 07:35:40;;;;;;;;;;;;;;;;;;;;;
2021/07/16 07:38:48;;;;;;;;;;;;;;;;;;;;;
2021/07/16 07:41:57;;;;;;;4.80;3.90;;;25.00;57.90;;;;;;5051661;28;20454;-84
2021/07/16 07:44:31;;;;;;;3.97;3.00;;;25.00;57.90;;;;;;5024462;28;20458;-84
2021/07/16 07:50:10;;;;;;;;;;;;;;;;;;;;;
2021/07/16 08:02:47;;;;;;;2.67;2.47;;;25.00;57.90;;;;;;4995392;28;20489;-84
2021/07/16 08:12:22;;;;;;;4.30;3.73;;;25.00;58.00;;;;;;4975991;29;20406;-84
2021/07/16 08:54:41;;;;;;;;;;;;;;;;;;;;;
2021/07/16 08:57:51;;;;;;;;;;;;;;;;;;;;;
2021/07/16 10:19:08;;;;;;;8.40;3.90;;;25.20;58.00;;;;;;4676237;30;20488;-85
2021/07/16 10:21:39;;;;;;;4.83;3.80;;;25.10;58.00;;;;;;4699596;30;20471;-84
2021/07/16 10:35:56;;;;;;;;;;;;;;;;;;;;;
2021/07/16 10:42:01;;;;;;;5.77;4.27;;;25.10;58.00;;;;;;4763033;30;20422;-85
2021/07/16 10:44:47;;;;;;;3.33;3.03;;;25.10;58.00;;;;;;4786824;30;20542;-85
2021/07/16 10:47:51;;;;;;;;;;;;;;;;;;;;;
2021/07/16 10:50:35;;;;;;;8.27;4.10;;;25.10;57.90;;;;;;4822773;29;20459;-85
2021/07/16 10:53:48;;;;;;;;;;;;;;;;;;;;;
2021/07/16 10:56:46;;;;;;;9.67;5.77;;;25.10;57.80;;;;;;4826788;29;20467;-84
2021/07/16 11:10:20;;;;;;;;;;;;;;;;;;;;;
2021/07/16 11:12:57;;;;;;;22.83;9.17;;;25.10;57.90;;;;;;4934986;29;20430;-85
2021/07/16 11:15:40;;;;;;;22.77;9.20;;;25.10;57.90;;;;;;4977040;28;20417;-86
2021/07/16 11:18:30;;;;;;;22.70;10.37;;;25.10;57.90;;;;;;4940563;29;20420;-86
2021/07/16 11:21:03;;;;;;;27.60;9.80;;;25.20;57.90;;;;;;4920859;29;20498;-85
2021/07/16 11:24:02;;;;;;;16.50;9.10;;;25.10;57.80;;;;;;4937246;29;20644;-85
2021/07/16 11:26:52;;;;;;;19.40;8.70;;;25.20;57.90;;;;;;4945130;29;20498;-85
2021/07/16 11:30:17;;;;;;;;;;;;;;;;;;;;;
2021/07/16 11:40:19;;;;;;;26.03;9.07;;;25.10;57.80;;;;;;4925800;29;20403;-84
2021/07/16 11:42:54;;;;;;;16.57;8.77;;;25.10;57.80;;;;;;4917165;29;20820;-86
2021/07/16 11:45:53;;;;;;;24.97;9.90;;;25.10;57.90;;;;;;4937810;29;20938;-84
2021/07/16 11:48:34;;;;;;;19.20;7.97;;;25.10;57.80;;;;;;4939498;29;20423;-84
2021/07/16 11:51:16;;;;;;;15.77;8.00;;;25.10;57.90;;;;;;4923197;29;20466;-85
2021/07/16 11:54:13;;;;;;;29.53;8.73;;;25.10;57.80;;;;;;4937395;29;20412;-86
2021/07/16 12:06:41;;;;;;;;;;;;;;;;;;;;;
2021/07/16 12:09:42;;;;;;;15.93;7.53;;;25.10;57.90;;;;;;4971214;29;20568;-86
2021/07/16 12:12:23;;;;;;;14.53;7.87;;;25.10;57.80;;;;;;4964201;29;20432;-86
2021/07/16 12:15:20;;;;;;;15.43;8.07;;;25.10;57.90;;;;;;4974471;29;20505;-86
2021/07/16 12:18:02;;;;;;;15.27;7.50;;;25.10;57.80;;;;;;4974224;29;20494;-85
2021/07/16 12:21:06;;;;;;;;;;;;;;;;;;;;;
2021/07/16 12:30:12;;;;;;;16.83;8.03;;;25.10;57.80;;;;;;5015630;28;20388;-83
2021/07/16 12:32:48;;;;;;;17.77;7.40;;;25.10;57.90;;;;;;5015883;28;20431;-83
2021/07/16 12:35:28;;;;;;;14.30;6.83;;;25.10;57.90;;;;;;4998850;28;20457;-83
2021/07/16 12:38:40;;;;;;;;;;;;;;;;;;;;;
2021/07/16 12:48:26;;;;;;;14.23;7.33;;;25.10;57.90;;;;;;4976281;28;20413;-84
2021/07/16 12:54:48;;;;;;;17.43;7.27;;;25.10;57.90;;;;;;4976105;28;20398;-84
2021/07/16 13:01:31;;;;;;;16.97;7.20;;;25.10;57.90;;;;;;4975568;28;20381;-83
2021/07/16 13:04:48;;;;;;;13.33;6.70;;;25.10;57.90;;;;;;4954784;29;20483;-83
2021/07/16 13:07:54;;;;;;;13.50;6.57;;;25.10;57.90;;;;;;4953665;29;20431;-87
2021/07/16 13:10:26;;;;;;;12.57;5.53;;;25.10;58.00;;;;;;4883199;29;20454;-84
2021/07/16 13:13:31;;;;;;;;;;;;;;;;;;;;;
2021/07/16 13:16:28;;;;;;;11.77;6.10;;;25.10;58.00;;;;;;4898218;29;20534;-85
2021/07/16 13:19:08;;;;;;;12.33;6.40;;;25.10;57.90;;;;;;4863765;29;20423;-85
2021/07/16 13:22:19;;;;;;;;;;;;;;;;;;;;;
2021/07/16 13:25:23;;;;;;;8.33;4.70;;;25.10;58.50;;;;;;4899256;29;20499;-83
2021/07/16 13:27:53;;;;;;;11.23;5.53;;;25.00;57.90;;;;;;4860263;29;20505;-85
2021/07/16 13:30:24;;;;;;;8.20;5.07;;;25.00;57.90;;;;;;4896211;29;20617;-84
2021/07/16 13:33:39;;;;;;;;;;;;;;;;;;;;;
2021/07/16 13:39:38;;;;;;;8.40;4.87;;;25.00;57.90;;;;;;4916257;29;20424;-83
2021/07/16 13:42:13;;;;;;;8.40;4.53;;;25.00;58.00;;;;;;4916274;29;20432;-84
2021/07/16 13:44:43;;;;;;;9.07;5.10;;;25.00;58.00;;;;;;4957095;28;20557;-85
2021/07/16 13:47:18;;;;;;;9.20;4.60;;;25.00;57.90;;;;;;4972233;29;20417;-85
2021/07/16 13:50:04;;;;;;;6.40;4.93;;;25.00;57.90;;;;;;4974350;28;20467;-85
2021/07/16 13:52:36;;;;;;;10.07;5.47;;;25.00;57.90;;;;;;4974672;28;20524;-85
2021/07/16 13:55:08;;;;;;;9.63;4.73;;;25.00;58.00;;;;;;4974093;28;20413;-85
2021/07/16 13:58:09;;;;;;;;;;;;;;;;;;;;;
2021/07/16 14:04:34;;;;;;;10.17;4.40;;;25.00;57.90;;;;;;4931232;29;20497;-83
2021/07/16 14:10:59;;;;;;;6.87;4.50;;;25.00;58.00;;;;;;4954787;29;20455;-83
2021/07/16 14:17:01;;;;;;;5.50;3.87;;;25.00;58.00;;;;;;4954681;29;20419;-86
2021/07/16 14:22:55;;;;;;;;;;;;;;;;;;;;;
2021/07/16 14:25:39;;;;;;;6.10;3.83;;;25.10;58.00;;;;;;4915893;29;20491;-84
2021/07/16 14:28:35;;;;;;;7.27;4.00;;;25.10;58.00;;;;;;4899403;29;20432;-84
2021/07/16 14:34:28;;;;;;;;;;;;;;;;;;;;;
2021/07/16 14:43:13;;;;;;;3.83;3.23;;;25.20;57.90;;;;;;4932427;29;20397;-84
2021/07/16 14:45:43;;;;;;;4.57;3.30;;;25.20;57.90;;;;;;4933638;29;20503;-85
2021/07/16 14:48:13;;;;;;;6.70;3.20;;;25.20;57.80;;;;;;4936468;29;20492;-85
2021/07/16 14:50:53;;;;;;;5.53;3.57;;;25.20;57.80;;;;;;4965002;28;20420;-84
2021/07/16 14:53:29;;;;;;;3.90;3.00;;;25.30;57.90;;;;;;4994298;28;20421;-85
2021/07/16 14:55:57;;;;;;;5.80;3.20;;;25.30;57.90;;;;;;4976693;28;20420;-85
2021/07/16 14:58:27;;;;;;;3.70;2.83;;;25.30;57.90;;;;;;4981341;28;20951;-85
2021/07/16 15:00:54;;;;;;;4.50;3.33;;;25.30;57.80;;;;;;5056617;28;20418;-85
2021/07/16 15:03:31;;;;;;;;;;;;;;;;;;;;;
2021/07/16 15:06:19;;;;;;;;;;;;;;;;;;;;;
2021/07/16 15:08:56;;;;;;;3.57;2.63;;;25.30;57.70;;;;;;5059232;28;20452;-85
2021/07/16 15:11:26;;;;;;;4.43;2.80;;;25.30;57.70;;;;;;5056386;28;20444;-85
2021/07/16 15:13:58;;;;;;;3.60;3.00;;;25.30;57.70;;;;;;5057076;28;20489;-85
2021/07/16 15:16:30;;;;;;;4.07;3.00;;;25.40;57.70;;;;;;5076518;28;20436;-85
2021/07/16 15:19:11;;;;;;;4.40;2.90;;;25.40;57.70;;;;;;5076300;28;20423;-85
2021/07/16 15:22:07;;;;;;;3.03;2.73;;;25.30;57.60;;;;;;5075878;28;20417;-85
2021/07/16 15:24:50;;;;;;;3.53;2.80;;;25.40;57.60;;;;;;5077638;28;20519;-84
2021/07/16 15:27:40;;;;;;;;;;;;;;;;;;;;;
2021/07/16 15:30:20;;;;;;;;;;;;;;;;;;;;;
2021/07/16 15:32:50;;;;;;;4.40;3.23;;;25.40;57.60;;;;;;5096201;28;20416;-84
2021/07/16 15:35:22;;;;;;;3.30;3.00;;;25.40;57.60;;;;;;5079218;28;20496;-84
2021/07/16 15:37:54;;;;;;;4.00;2.97;;;25.40;57.60;;;;;;5079153;28;20451;-85
2021/07/16 15:40:45;;;;;;;3.53;2.50;;;25.40;57.60;;;;;;5094576;28;20425;-85
2021/07/16 15:43:19;;;;;;;3.03;2.60;;;25.40;57.50;;;;;;5064653;28;20428;-85
2021/07/16 15:46:03;;;;;;;3.80;2.80;;;25.40;57.50;;;;;;5078547;28;20531;-85
2021/07/16 15:49:01;;;;;;;3.13;2.50;;;25.40;57.50;;;;;;5095345;28;20408;-85
2021/07/16 15:51:55;;;;;;;;;;;;;;;;;;;;;
2021/07/16 15:57:55;;;;;;;2.30;2.10;;;25.40;57.50;;;;;;5033500;28;20431;-85
2021/07/16 16:00:27;;;;;;;3.30;3.00;;;25.40;57.60;;;;;;5016366;28;20426;-85
2021/07/16 16:03:21;;;;;;;3.53;3.23;;;25.40;57.60;;;;;;5019604;28;20411;-84
2021/07/16 16:06:16;;;;;;;3.37;3.07;;;25.40;57.60;;;;;;5031671;28;20423;-84
2021/07/16 16:08:45;;;;;;;2.97;2.77;;;25.40;57.60;;;;;;5034254;28;20905;-85
2021/07/16 16:11:21;;;;;;;4.03;3.57;;;25.40;57.60;;;;;;5017211;28;20470;-84
2021/07/16 16:14:02;;;;;;;3.37;3.07;;;25.40;57.60;;;;;;5017989;28;20507;-84
2021/07/16 16:16:37;;;;;;;2.83;2.63;;;25.50;57.60;;;;;;5016491;28;20427;-85
2021/07/16 16:19:27;;;;;;;;;;;;;;;;;;;;;
2021/07/16 16:21:56;;;;;;;2.97;2.60;;;25.50;57.60;;;;;;5034096;28;20411;-84
2021/07/16 16:24:29;;;;;;;3.03;2.83;;;25.40;57.50;;;;;;5018031;28;20459;-85
2021/07/16 16:26:57;;;;;;;3.40;3.10;;;25.50;57.60;;;;;;5014601;28;20423;-85
2021/07/16 16:29:23;;;;;;;4.13;3.60;;;25.50;57.60;;;;;;5017191;28;20422;-84
2021/07/16 16:31:55;;;;;;;3.30;3.00;;;25.50;57.60;;;;;;5064063;28;20417;-85
2021/07/16 16:34:31;;;;;;;3.80;2.90;;;25.50;57.60;;;;;;5059866;28;20413;-84
2021/07/16 16:37:15;;;;;;;2.87;2.63;;;25.50;57.60;;;;;;5077483;28;20431;-84
2021/07/16 16:40:40;;;;;;;;;;;;;;;;;;;;;
2021/07/16 16:47:34;;;;;;;4.57;3.10;;;25.50;57.70;;;;;;5029603;28;20515;-85
2021/07/16 16:50:35;;;;;;;3.33;2.60;;;25.50;57.70;;;;;;5013454;28;20463;-85
2021/07/16 16:53:47;;;;;;;2.83;2.60;;;25.50;57.80;;;;;;5031076;28;20470;-85
2021/07/16 16:59:40;;;;;;;3.10;2.80;;;25.50;57.90;;;;;;5033458;28;20957;-86
2021/07/16 17:02:29;;;;;;;4.17;3.03;;;25.50;57.90;;;;;;5015286;28;20443;-85
2021/07/16 17:05:23;;;;;;;2.77;2.50;;;25.50;57.90;;;;;;4992708;28;20566;-85
2021/07/16 17:08:17;;;;;;;3.30;3.00;;;25.50;57.90;;;;;;5012103;28;20445;-85
2021/07/16 17:15:02;;;;;;;;;;;;;;;;;;;;;
2021/07/16 17:18:00;;;;;;;4.33;3.47;;;25.50;57.80;;;;;;4974365;29;20437;-84
2021/07/16 17:20:33;;;;;;;6.20;3.37;;;25.50;57.90;;;;;;4991087;28;20428;-84
2021/07/16 17:27:03;;;;;;;;;;;;;;;;;;;;;
2021/07/16 17:33:08;;;;;;;3.23;2.93;;;25.50;57.90;;;;;;4995183;28;20373;-84
2021/07/16 17:35:49;;;;;;;3.90;3.20;;;25.50;58.00;;;;;;4996107;28;20417;-84
2021/07/16 17:38:29;;;;;;;3.73;3.13;;;25.50;57.90;;;;;;4994330;28;20417;-84
2021/07/16 17:41:03;;;;;;;3.00;2.80;;;25.50;57.90;;;;;;4978951;28;20409;-84
2021/07/16 17:44:12;;;;;;;5.43;3.50;;;25.50;57.90;;;;;;4979227;28;20394;-84
2021/07/16 17:50:24;;;;;;;3.33;3.03;;;25.50;57.90;;;;;;4955955;29;20419;-84
2021/07/16 17:52:58;;;;;;;5.20;3.40;;;25.50;58.00;;;;;;4940701;29;20477;-84
2021/07/16 17:55:57;;;;;;;3.40;3.17;;;25.50;58.00;;;;;;5014386;28;20400;-83
2021/07/16 18:01:36;;;;;;;3.40;3.10;;;25.60;58.00;;;;;;4993234;28;20462;-83
2021/07/16 18:04:11;;;;;;;3.73;3.20;;;25.50;58.00;;;;;;4981646;28;20456;-83
2021/07/16 18:10:30;;;;;;;3.00;2.80;;;25.50;58.00;;;;;;5013373;28;20467;-83
2021/07/16 18:19:41;;;;;;;3.80;3.50;;;25.50;58.10;;;;;;5013821;28;20423;-83
2021/07/16 18:29:17;;;;;;;3.90;3.50;;;25.50;58.20;;;;;;4974927;28;20433;-83
2021/07/16 18:39:03;;;;;;;3.17;2.97;;;25.50;58.20;;;;;;4974068;28;20477;-84
2021/07/16 18:48:28;;;;;;;4.00;3.70;;;25.50;58.20;;;;;;4974452;29;20374;-84
2021/07/16 18:58:07;;;;;;;3.43;3.13;;;25.50;58.20;;;;;;4935193;29;20444;-85
2021/07/16 19:00:41;;;;;;;3.50;3.20;;;25.40;58.20;;;;;;4936642;29;20448;-85
2021/07/16 19:03:08;;;;;;;3.80;3.40;;;25.50;58.30;;;;;;4918218;29;20416;-85
2021/07/16 19:05:47;;;;;;;4.90;3.50;;;25.50;58.30;;;;;;4936761;29;20471;-85
2021/07/16 19:08:19;;;;;;;3.30;3.00;;;25.50;58.20;;;;;;4936643;29;20412;-85
2021/07/16 19:10:50;;;;;;;3.03;2.83;;;25.50;58.20;;;;;;4938961;28;20439;-84
2021/07/16 19:13:25;;;;;;;3.60;3.30;;;25.50;58.20;;;;;;5013040;28;20397;-85
2021/07/16 19:15:54;;;;;;;3.43;3.23;;;25.50;58.20;;;;;;4997100;28;20416;-85
2021/07/16 19:18:21;;;;;;;3.13;2.80;;;25.50;58.20;;;;;;4997706;28;20398;-85
2021/07/16 19:20:47;;;;;;;3.23;3.03;;;25.50;58.10;;;;;;4996572;28;20412;-85
2021/07/16 19:23:14;;;;;;;3.17;2.80;;;25.40;58.10;;;;;;4997603;28;20416;-85
2021/07/16 19:25:44;;;;;;;2.93;2.73;;;25.40;58.60;;;;;;5012828;28;20460;-85
2021/07/16 19:28:16;;;;;;;3.33;3.03;;;25.40;58.10;;;;;;4997286;28;20419;-85
2021/07/16 19:30:52;;;;;;;3.90;3.47;;;25.40;58.10;;;;;;5058461;28;20420;-85
2021/07/16 19:33:21;;;;;;;3.40;3.03;;;25.40;58.10;;;;;;5060145;28;20420;-85
2021/07/16 19:36:15;;;;;;;;;;;;;;;;;;;;;
2021/07/16 19:38:48;;;;;;;3.90;3.60;;;25.40;58.10;;;;;;5072656;28;20430;-84
2021/07/16 19:41:32;;;;;;;3.03;2.80;;;25.40;58.20;;;;;;5063112;28;20406;-84
2021/07/16 19:44:13;;;;;;;3.93;3.63;;;25.40;58.20;;;;;;5078313;28;20499;-84
2021/07/16 19:46:45;;;;;;;3.70;3.10;;;25.40;58.20;;;;;;5060915;28;20414;-82
2021/07/16 19:49:19;;;;;;;3.90;3.23;;;25.40;58.20;;;;;;5061229;28;20394;-84
2021/07/16 19:52:06;;;;;;;;;;;;;;;;;;;;;
2021/07/16 19:54:47;;;;;;;3.60;3.30;;;25.40;58.80;;;;;;5021837;28;20434;-83
2021/07/16 20:00:27;;;;;;;3.40;3.10;;;25.30;58.20;;;;;;5036680;28;20434;-84
2021/07/16 20:05:55;;;;;;;3.30;3.00;;;25.30;58.30;;;;;;4996906;28;20549;-83
2021/07/16 20:08:44;;;;;;;3.17;2.90;;;25.30;58.30;;;;;;4980322;28;20433;-83
2021/07/16 20:17:42;;;;;;;3.93;3.63;;;25.30;58.30;;;;;;4957480;29;20395;-84
2021/07/16 20:23:56;;;;;;;3.30;2.80;;;25.30;58.50;;;;;;4938423;29;20482;-84
2021/07/16 20:26:25;;;;;;;3.70;3.37;;;25.20;58.40;;;;;;4922964;29;20434;-84
2021/07/16 20:29:10;;;;;;;3.37;3.07;;;25.20;58.50;;;;;;4923013;29;20434;-84
2021/07/16 20:31:41;;;;;;;3.43;3.23;;;25.30;58.50;;;;;;4941153;29;20412;-84
2021/07/16 20:34:19;;;;;;;3.37;3.07;;;25.20;58.50;;;;;;4937372;29;20459;-85
2021/07/16 20:37:03;;;;;;;4.03;3.50;;;25.20;58.50;;;;;;4962889;29;20426;-84
2021/07/16 20:39:33;;;;;;;3.70;3.37;;;25.20;58.50;;;;;;4959081;29;20418;-84
2021/07/16 20:42:08;;;;;;;3.80;3.50;;;25.30;58.60;;;;;;4975235;28;20414;-84
2021/07/16 20:44:40;;;;;;;4.10;3.77;;;25.20;58.50;;;;;;4969151;28;20468;-84
2021/07/16 20:47:20;;;;;;;3.97;3.67;;;25.20;58.50;;;;;;4979170;28;20448;-84
2021/07/16 20:49:50;;;;;;;5.50;3.60;;;25.20;58.50;;;;;;4965280;28;20443;-83
2021/07/16 20:52:24;;;;;;;3.73;3.43;;;25.20;58.50;;;;;;5035472;28;20412;-84
2021/07/16 21:01:42;;;;;;;3.63;2.97;;;25.20;58.50;;;;;;4996127;28;20416;-84
2021/07/16 21:04:18;;;;;;;3.63;3.10;;;25.20;58.60;;;;;;4995216;28;20433;-83
2021/07/16 21:06:44;;;;;;;3.80;3.47;;;25.10;58.60;;;;;;4979640;28;20405;-85
2021/07/16 21:09:10;;;;;;;5.90;3.63;;;25.20;58.60;;;;;;4979162;28;20411;-84
2021/07/16 21:11:43;;;;;;;3.83;3.43;;;25.20;58.70;;;;;;4979430;28;20419;-84
2021/07/16 21:24:52;;;;;;;4.03;3.60;;;25.10;58.70;;;;;;4937219;29;20523;-84
2021/07/16 21:27:31;;;;;;;3.97;3.57;;;25.10;58.80;;;;;;4922180;29;20495;-85
2021/07/16 21:30:02;;;;;;;3.60;3.30;;;25.10;58.80;;;;;;4936943;29;20815;-85
2021/07/16 21:32:29;;;;;;;3.67;3.37;;;25.10;58.90;;;;;;4920683;29;20423;-85
2021/07/16 21:35:09;;;;;;;4.20;3.80;;;25.10;58.80;;;;;;4955904;28;20436;-84
2021/07/16 21:37:36;;;;;;;3.80;3.50;;;25.10;58.80;;;;;;4975313;28;20445;-85
2021/07/16 21:40:08;;;;;;;4.23;3.93;;;25.10;58.90;;;;;;4977887;28;20432;-85
2021/07/16 21:42:40;;;;;;;5.20;4.27;;;25.10;58.90;;;;;;4977975;28;20439;-85
2021/07/16 21:45:17;;;;;;;3.93;3.63;;;25.10;58.80;;;;;;4993561;28;20484;-85
2021/07/16 21:51:07;;;;;;;4.80;4.27;;;25.20;58.90;;;;;;4994365;28;20516;-85
2021/07/16 21:53:49;;;;;;;4.20;3.90;;;25.10;58.90;;;;;;4993597;28;20476;-85
2021/07/16 21:56:15;;;;;;;4.07;3.67;;;25.10;58.90;;;;;;4994282;28;20448;-85
2021/07/16 21:58:44;;;;;;;3.90;3.60;;;25.10;58.90;;;;;;5017079;28;20399;-84
2021/07/16 22:01:41;;;;;;;5.00;4.60;;;25.10;58.90;;;;;;5015906;28;20427;-85
2021/07/16 22:04:08;;;;;;;4.37;4.07;;;25.10;58.90;;;;;;5025769;28;21008;-85
2021/07/16 22:10:02;;;;;;;5.00;4.50;;;25.20;59.00;;;;;;5075749;28;20417;-85
2021/07/16 22:12:36;;;;;;;3.93;3.53;;;25.10;59.00;;;;;;5074565;28;20414;-84
2021/07/16 22:15:10;;;;;;;4.93;4.10;;;25.10;58.90;;;;;;5057219;28;20394;-85
2021/07/16 22:17:46;;;;;;;4.33;3.93;;;25.10;59.00;;;;;;5057700;28;20397;-86
2021/07/16 22:20:18;;;;;;;4.30;4.00;;;25.10;58.90;;;;;;5030102;28;20423;-86
2021/07/16 22:22:52;;;;;;;4.90;4.07;;;25.20;59.00;;;;;;5056342;28;20414;-86
2021/07/16 22:25:21;;;;;;;3.83;3.53;;;25.20;59.00;;;;;;5056215;28;20457;-85
2021/07/16 22:27:49;;;;;;;4.13;3.83;;;25.20;58.90;;;;;;5039487;28;20417;-85
2021/07/16 22:30:28;;;;;;;4.33;4.00;;;25.20;58.90;;;;;;5073876;28;20469;-85
2021/07/16 22:32:57;;;;;;;4.00;3.70;;;25.20;58.90;;;;;;5056247;28;20386;-85
2021/07/16 22:35:28;;;;;;;4.00;3.70;;;25.20;58.90;;;;;;5072806;28;20408;-84
2021/07/16 22:37:58;;;;;;;4.90;4.50;;;25.20;58.90;;;;;;5073217;28;20414;-86
2021/07/16 22:40:27;;;;;;;4.80;4.40;;;25.20;58.80;;;;;;5072021;28;20432;-86
2021/07/16 22:42:58;;;;;;;5.80;4.97;;;25.20;58.80;;;;;;5073313;28;20410;-86
2021/07/16 22:45:29;;;;;;;4.47;4.17;;;25.20;58.80;;;;;;5057649;28;20457;-84
2021/07/16 22:48:06;;;;;;;4.13;3.73;;;25.20;58.80;;;;;;5073585;28;20414;-83
2021/07/16 22:50:37;;;;;;;4.67;4.27;;;25.20;58.80;;;;;;5056800;28;20408;-84
2021/07/16 22:53:06;;;;;;;4.70;4.30;;;25.20;58.80;;;;;;5073994;28;20882;-84
2021/07/16 22:55:39;;;;;;;5.17;4.77;;;25.20;58.80;;;;;;5054023;28;20468;-86
2021/07/16 22:58:09;;;;;;;4.50;4.10;;;25.20;58.80;;;;;;5054911;28;20475;-86
2021/07/16 23:00:38;;;;;;;4.47;4.07;;;25.20;58.80;;;;;;5072910;28;20479;-86
2021/07/16 23:03:09;;;;;;;4.80;4.40;;;25.20;58.80;;;;;;5073084;28;20461;-86
2021/07/16 23:05:40;;;;;;;4.67;4.27;;;25.20;58.90;;;;;;5055695;28;20464;-85
2021/07/16 23:08:08;;;;;;;4.57;4.17;;;25.20;58.80;;;;;;5058970;28;20425;-84
2021/07/16 23:10:46;;;;;;;5.17;4.67;;;25.20;58.80;;;;;;5060852;28;20521;-85
2021/07/16 23:13:15;;;;;;;4.90;4.50;;;25.20;58.80;;;;;;5076285;28;20435;-85
2021/07/16 23:15:43;;;;;;;4.70;4.30;;;25.20;58.80;;;;;;5059969;28;20495;-84
2021/07/16 23:18:12;;;;;;;5.73;5.10;;;25.20;58.80;;;;;;5059398;28;20425;-85
2021/07/16 23:20:39;;;;;;;5.13;4.63;;;25.20;58.80;;;;;;5075496;28;20448;-85
2021/07/16 23:23:09;;;;;;;4.90;4.40;;;25.20;58.80;;;;;;5076201;28;20929;-85
2021/07/16 23:25:40;;;;;;;4.60;4.20;;;25.20;59.40;;;;;;5076797;28;20449;-84
2021/07/16 23:28:09;;;;;;;5.17;4.50;;;25.20;58.90;;;;;;5076154;28;20437;-84
2021/07/16 23:30:42;;;;;;;4.80;4.40;;;25.20;58.80;;;;;;5076029;28;20409;-84
2021/07/16 23:33:13;;;;;;;5.23;4.83;;;25.20;58.80;;;;;;5075573;28;20425;-85
2021/07/16 23:35:40;;;;;;;4.63;4.23;;;25.20;58.80;;;;;;5059281;28;20506;-84
2021/07/16 23:41:44;;;;;;;5.30;4.90;;;25.20;58.80;;;;;;5075982;28;20423;-84
2021/07/16 23:44:10;;;;;;;5.40;5.00;;;25.20;58.90;;;;;;5058571;28;20457;-85
2021/07/16 23:46:37;;;;;;;4.90;4.50;;;25.20;58.90;;;;;;5059274;28;20418;-84
2021/07/16 23:49:07;;;;;;;5.30;4.90;;;25.20;58.90;;;;;;5075022;28;20421;-84
2021/07/16 23:51:40;;;;;;;8.10;5.67;;;25.20;58.90;;;;;;5058734;28;20420;-84
2021/07/16 23:54:06;;;;;;;5.20;4.70;;;25.20;58.90;;;;;;5075820;28;20481;-84
2021/07/16 23:59:59;;;;;;;5.30;4.80;;;25.20;58.80;;;;;;5077188;28;20377;-84
